KROA/ROA METAR and TAF weather

Enter ICAO airport designator
Station Type Date Time Source
KROA METAR 2021/01/20 21:54 UTC NOAA

KROA 202154Z 32010KT 10SM CLR 07/M09 A3010 RMK AO2 SLP195 T00671089


Station Type Date Time Source
KROA Decoded METAR 2021/01/20 21:54 UTC NOAA

ROANOKE REGIONAL AIRPORT, VA, United States (KROA) 37-19N 079-58W 362M
Jan 20, 2021 - 04:54 PM EST / 2021.01.20 2154 UTC
Wind: from the NW (320 degrees) at 12 MPH (10 KT):0
Visibility: 10 mile(s):0
Sky conditions: clear
Temperature: 44.1 F (6.7 C)
Dew Point: 16.0 F (-8.9 C)
Relative Humidity: 31%
Pressure (altimeter): 30.1 in. Hg (1019 hPa)
ob: KROA 202154Z 32010KT 10SM CLR 07/M09 A3010 RMK AO2 SLP195 T00671089
cycle: 22

Station Type Date Time Source
KROA TAF 2021/01/20 18:24 UTC NOAA

TAF KROA 201721Z 2018/2118 30016G28KT P6SM SCT040
FM202100 29014KT P6SM BKN040
FM210000 28006KT P6SM FEW250
FM211200 23004KT P6SM SCT040 BKN100
FM211700 26009KT P6SM BKN040

Example: see airport list